sensor_id;sensor_type;location;lat;lon;timestamp;pressure;altitude;pressure_sealevel;temperature;humidity
69171;BME280;56279;47.902;12.308;2023-04-05T00:00:51;95814.22;;;-2.17;68.80
69171;BME280;56279;47.902;12.308;2023-04-05T00:02:57;95814.38;;;-2.19;69.06
69171;BME280;56279;47.902;12.308;2023-04-05T00:05:02;95812.00;;;-2.20;68.52
69171;BME280;56279;47.902;12.308;2023-04-05T00:07:03;95809.56;;;-2.22;68.43
69171;BME280;56279;47.902;12.308;2023-04-05T00:09:08;95802.22;;;-2.25;69.06
69171;BME280;56279;47.902;12.308;2023-04-05T00:11:09;95809.97;;;-2.25;68.68
69171;BME280;56279;47.902;12.308;2023-04-05T00:13:10;95797.84;;;-2.24;69.15
69171;BME280;56279;47.902;12.308;2023-04-05T00:15:11;95792.47;;;-2.23;69.21
69171;BME280;56279;47.902;12.308;2023-04-05T00:17:13;95795.47;;;-2.19;69.05
69171;BME280;56279;47.902;12.308;2023-04-05T00:19:14;95796.47;;;-2.20;69.39
69171;BME280;56279;47.902;12.308;2023-04-05T00:21:21;95786.16;;;-2.20;69.33
69171;BME280;56279;47.902;12.308;2023-04-05T00:23:23;95785.34;;;-2.21;69.14
69171;BME280;56279;47.902;12.308;2023-04-05T00:25:26;95781.94;;;-2.21;69.58
69171;BME280;56279;47.902;12.308;2023-04-05T00:27:27;95785.53;;;-2.22;69.63
69171;BME280;56279;47.902;12.308;2023-04-05T00:29:29;95783.13;;;-2.24;69.50
69171;BME280;56279;47.902;12.308;2023-04-05T00:31:30;95781.53;;;-2.25;69.91
69171;BME280;56279;47.902;12.308;2023-04-05T00:33:31;95776.53;;;-2.26;69.96
69171;BME280;56279;47.902;12.308;2023-04-05T00:35:32;95780.72;;;-2.25;70.08
69171;BME280;56279;47.902;12.308;2023-04-05T00:37:34;95774.94;;;-2.27;70.33
69171;BME280;56279;47.902;12.308;2023-04-05T00:39:35;95783.69;;;-2.28;70.48
69171;BME280;56279;47.902;12.308;2023-04-05T00:41:36;95791.44;;;-2.28;70.52
69171;BME280;56279;47.902;12.308;2023-04-05T00:43:38;95779.88;;;-2.32;70.61
69171;BME280;56279;47.902;12.308;2023-04-05T00:45:40;95783.22;;;-2.38;70.75
69171;BME280;56279;47.902;12.308;2023-04-05T00:47:43;95776.78;;;-2.42;70.59
69171;BME280;56279;47.902;12.308;2023-04-05T00:49:45;95771.81;;;-2.44;71.05
69171;BME280;56279;47.902;12.308;2023-04-05T00:51:47;95773.59;;;-2.44;70.87
69171;BME280;56279;47.902;12.308;2023-04-05T00:53:48;95777.00;;;-2.44;70.72
69171;BME280;56279;47.902;12.308;2023-04-05T00:55:53;95773.59;;;-2.44;71.13
69171;BME280;56279;47.902;12.308;2023-04-05T00:57:55;95771.81;;;-2.44;71.05
69171;BME280;56279;47.902;12.308;2023-04-05T01:00:00;95766.84;;;-2.45;71.46
69171;BME280;56279;47.902;12.308;2023-04-05T01:02:51;95768.44;;;-2.44;71.26
69171;BME280;56279;47.902;12.308;2023-04-05T01:07:12;95765.59;;;-2.49;70.82
69171;BME280;56279;47.902;12.308;2023-04-05T01:09:28;95766.78;;;-2.52;71.24
69171;BME280;56279;47.902;12.308;2023-04-05T01:11:34;95770.53;;;-2.54;71.12
69171;BME280;56279;47.902;12.308;2023-04-05T01:13:38;95767.16;;;-2.55;71.11
69171;BME280;56279;47.902;12.308;2023-04-05T01:15:39;95763.78;;;-2.55;71.22
69171;BME280;56279;47.902;12.308;2023-04-05T01:17:41;95759.41;;;-2.55;71.54
69171;BME280;56279;47.902;12.308;2023-04-05T01:19:42;95761.19;;;-2.55;71.72
69171;BME280;56279;47.902;12.308;2023-04-05T01:31:44;95749.94;;;-2.69;72.28
69171;BME280;56279;47.902;12.308;2023-04-05T01:33:58;95745.94;;;-2.71;72.06
69171;BME280;56279;47.902;12.308;2023-04-05T01:38:26;95745.50;;;-2.75;72.08
69171;BME280;56279;47.902;12.308;2023-04-05T01:40:29;95744.88;;;-2.77;71.98
69171;BME280;56279;47.902;12.308;2023-04-05T01:42:31;95742.50;;;-2.78;72.35
69171;BME280;56279;47.902;12.308;2023-04-05T01:44:33;95740.88;;;-2.80;72.57
69171;BME280;56279;47.902;12.308;2023-04-05T03:48:13;95679.63;;;-3.28;72.84
69171;BME280;56279;47.902;12.308;2023-04-05T03:50:23;95675.44;;;-3.29;73.14
69171;BME280;56279;47.902;12.308;2023-04-05T03:52:26;95678.84;;;-3.28;72.79
69171;BME280;56279;47.902;12.308;2023-04-05T03:54:27;95685.78;;;-3.29;73.84
69171;BME280;56279;47.902;12.308;2023-04-05T03:56:32;95682.41;;;-3.29;73.27
69171;BME280;56279;47.902;12.308;2023-04-05T03:58:41;95684.81;;;-3.28;73.94
69171;BME280;56279;47.902;12.308;2023-04-05T04:00:43;95683.84;;;-3.27;73.74
69171;BME280;56279;47.902;12.308;2023-04-05T04:50:46;95673.63;;;-3.14;73.67
69171;BME280;56279;47.902;12.308;2023-04-05T04:52:48;95672.66;;;-3.13;73.86
69171;BME280;56279;47.902;12.308;2023-04-05T04:54:49;95672.47;;;-3.11;74.49
69171;BME280;56279;47.902;12.308;2023-04-05T04:56:52;95675.47;;;-3.08;74.77
69171;BME280;56279;47.902;12.308;2023-04-05T04:58:56;95674.84;;;-3.10;74.17
69171;BME280;56279;47.902;12.308;2023-04-05T05:00:58;95675.25;;;-3.13;74.45
69171;BME280;56279;47.902;12.308;2023-04-05T05:03:00;95681.38;;;-3.14;74.15
69171;BME280;56279;47.902;12.308;2023-04-05T05:05:02;95673.63;;;-3.14;74.63
69171;BME280;56279;47.902;12.308;2023-04-05T05:07:04;95677.44;;;-3.10;75.26
69171;BME280;56279;47.902;12.308;2023-04-05T05:09:08;95675.13;;;-3.05;75.24
69171;BME280;56279;47.902;12.308;2023-04-05T05:11:28;95681.34;;;-2.99;75.48
69171;BME280;56279;47.902;12.308;2023-04-05T05:13:30;95679.00;;;-2.94;75.18
69171;BME280;56279;47.902;12.308;2023-04-05T05:15:32;95673.09;;;-2.88;74.83
69171;BME280;56279;47.902;12.308;2023-04-05T05:17:33;95681.25;;;-2.85;74.94
69171;BME280;56279;47.902;12.308;2023-04-05T05:19:35;95678.91;;;-2.80;74.87
69171;BME280;56279;47.902;12.308;2023-04-05T05:21:36;95674.00;;;-2.74;75.63
69171;BME280;56279;47.902;12.308;2023-04-05T05:23:37;95678.78;;;-2.71;75.13
69171;BME280;56279;47.902;12.308;2023-04-05T05:25:39;95676.47;;;-2.66;75.15
69171;BME280;56279;47.902;12.308;2023-04-05T05:27:40;95685.44;;;-2.62;75.37
69171;BME280;56279;47.902;12.308;2023-04-05T05:29:43;95685.66;;;-2.57;75.30
69171;BME280;56279;47.902;12.308;2023-04-05T05:31:44;95686.06;;;-2.54;75.49
69171;BME280;56279;47.902;12.308;2023-04-05T05:33:45;95685.53;;;-2.49;75.50
69171;BME280;56279;47.902;12.308;2023-04-05T05:35:50;95686.97;;;-2.40;75.01
69171;BME280;56279;47.902;12.308;2023-04-05T05:37:51;95683.34;;;-2.25;74.72
69171;BME280;56279;47.902;12.308;2023-04-05T05:39:52;95685.09;;;-1.97;74.69
69171;BME280;56279;47.902;12.308;2023-04-05T05:41:53;95690.88;;;-1.55;73.91
69171;BME280;56279;47.902;12.308;2023-04-05T05:43:55;95689.63;;;-1.11;72.32
69171;BME280;56279;47.902;12.308;2023-04-05T05:45:59;95683.47;;;-0.97;71.92
69171;BME280;56279;47.902;12.308;2023-04-05T05:48:01;95683.06;;;-1.07;72.39
69171;BME280;56279;47.902;12.308;2023-04-05T05:50:03;95695.78;;;-1.19;72.69
69171;BME280;56279;47.902;12.308;2023-04-05T05:52:06;95691.97;;;-1.29;73.04
69171;BME280;56279;47.902;12.308;2023-04-05T05:54:08;95693.34;;;-1.33;73.24
69171;BME280;56279;47.902;12.308;2023-04-05T05:56:09;95693.97;;;-1.31;73.58
69171;BME280;56279;47.902;12.308;2023-04-05T05:58:11;95691.16;;;-1.30;73.80
69171;BME280;56279;47.902;12.308;2023-04-05T06:00:13;95689.38;;;-1.29;73.87
69171;BME280;56279;47.902;12.308;2023-04-05T06:02:15;95693.97;;;-1.25;73.84
69171;BME280;56279;47.902;12.308;2023-04-05T06:04:16;95690.44;;;-0.98;73.92
69171;BME280;56279;47.902;12.308;2023-04-05T06:06:19;95690.72;;;-0.53;72.60
69171;BME280;56279;47.902;12.308;2023-04-05T06:08:21;95689.31;;;-0.30;72.00
69171;BME280;56279;47.902;12.308;2023-04-05T06:10:22;95684.34;;;-0.25;71.81
69171;BME280;56279;47.902;12.308;2023-04-05T06:12:25;95686.94;;;-0.25;71.76
69171;BME280;56279;47.902;12.308;2023-04-05T06:14:26;95683.34;;;-0.17;71.29
69171;BME280;56279;47.902;12.308;2023-04-05T06:16:29;95679.75;;;-0.23;71.44
69171;BME280;56279;47.902;12.308;2023-04-05T06:18:30;95682.72;;;-0.32;71.69
69171;BME280;56279;47.902;12.308;2023-04-05T06:20:32;95681.34;;;-0.41;72.32
69171;BME280;56279;47.902;12.308;2023-04-05T06:22:33;95682.97;;;-0.47;72.27
69171;BME280;56279;47.902;12.308;2023-04-05T06:24:36;95686.94;;;-0.38;71.70
69171;BME280;56279;47.902;12.308;2023-04-05T06:26:37;95687.94;;;-0.19;71.70
69171;BME280;56279;47.902;12.308;2023-04-05T06:28:38;95685.53;;;-0.08;71.23
69171;BME280;56279;47.902;12.308;2023-04-05T06:30:41;95687.28;;;-0.02;70.98
69171;BME280;56279;47.902;12.308;2023-04-05T06:32:42;95682.91;;;-0.01;70.54
69171;BME280;56279;47.902;12.308;2023-04-05T06:34:43;95679.31;;;-0.07;71.24
69171;BME280;56279;47.902;12.308;2023-04-05T06:36:48;95675.53;;;-0.11;71.12
69171;BME280;56279;47.902;12.308;2023-04-05T06:38:51;95677.53;;;-0.06;70.90
69171;BME280;56279;47.902;12.308;2023-04-05T06:40:52;95677.31;;;-0.05;71.12
69171;BME280;56279;47.902;12.308;2023-04-05T06:42:53;95670.56;;;-0.06;70.82
69171;BME280;56279;47.902;12.308;2023-04-05T06:45:01;95677.75;;;-0.08;70.62
69171;BME280;56279;47.902;12.308;2023-04-05T06:47:04;95681.53;;;-0.10;71.04
69171;BME280;56279;47.902;12.308;2023-04-05T06:49:05;95685.91;;;-0.11;71.03
69171;BME280;56279;47.902;12.308;2023-04-05T06:51:07;95680.34;;;-0.08;70.80
69171;BME280;56279;47.902;12.308;2023-04-05T06:53:08;95687.88;;;0.00;70.84
69171;BME280;56279;47.902;12.308;2023-04-05T06:55:09;95681.09;;;0.06;70.89
69171;BME280;56279;47.902;12.308;2023-04-05T06:57:11;95669.47;;;0.22;70.07
69171;BME280;56279;47.902;12.308;2023-04-05T06:59:12;95678.44;;;0.39;70.08
69171;BME280;56279;47.902;12.308;2023-04-05T07:01:13;95675.00;;;0.45;69.56
69171;BME280;56279;47.902;12.308;2023-04-05T07:03:17;95678.22;;;0.40;69.48
69171;BME280;56279;47.902;12.308;2023-04-05T07:05:19;95673.03;;;0.34;70.29
69171;BME280;56279;47.902;12.308;2023-04-05T07:07:20;95678.44;;;0.26;70.29
69171;BME280;56279;47.902;12.308;2023-04-05T07:09:22;95678.06;;;0.22;69.88
69171;BME280;56279;47.902;12.308;2023-04-05T07:11:25;95679.69;;;0.23;69.97
69171;BME280;56279;47.902;12.308;2023-04-05T07:13:27;95677.84;;;0.24;70.32
69171;BME280;56279;47.902;12.308;2023-04-05T07:15:29;95672.25;;;0.27;70.40
69171;BME280;56279;47.902;12.308;2023-04-05T07:17:30;95672.47;;;0.25;69.85
69171;BME280;56279;47.902;12.308;2023-04-05T07:19:32;95679.84;;;0.28;70.38
69171;BME280;56279;47.902;12.308;2023-04-05T07:21:33;95672.84;;;0.29;70.17
69171;BME280;56279;47.902;12.308;2023-04-05T07:23:34;95674.47;;;0.30;69.85
69171;BME280;56279;47.902;12.308;2023-04-05T07:25:38;95681.63;;;0.34;70.19
69171;BME280;56279;47.902;12.308;2023-04-05T07:27:40;95685.03;;;0.35;69.60
69171;BME280;56279;47.902;12.308;2023-04-05T07:29:41;95682.22;;;0.36;69.09
69171;BME280;56279;47.902;12.308;2023-04-05T07:31:43;95682.59;;;0.40;68.85
69171;BME280;56279;47.902;12.308;2023-04-05T07:33:45;95683.00;;;0.43;69.36
69171;BME280;56279;47.902;12.308;2023-04-05T07:35:51;95683.38;;;0.47;69.21
69171;BME280;56279;47.902;12.308;2023-04-05T07:37:53;95682.97;;;0.50;68.56
69171;BME280;56279;47.902;12.308;2023-04-05T07:39:54;95678.97;;;0.54;68.95
69171;BME280;56279;47.902;12.308;2023-04-05T07:41:56;95680.94;;;0.58;69.12
69171;BME280;56279;47.902;12.308;2023-04-05T07:43:58;95674.13;;;0.64;68.38
69171;BME280;56279;47.902;12.308;2023-04-05T07:46:02;95682.31;;;0.67;68.35
69171;BME280;56279;47.902;12.308;2023-04-05T07:48:04;95690.25;;;0.73;68.72
69171;BME280;56279;47.902;12.308;2023-04-05T07:50:06;95680.28;;;0.76;68.01
69171;BME280;56279;47.902;12.308;2023-04-05T07:52:09;95688.25;;;0.81;67.82
69171;BME280;56279;47.902;12.308;2023-04-05T07:54:12;95679.03;;;0.85;67.96
69171;BME280;56279;47.902;12.308;2023-04-05T07:56:14;95680.41;;;0.88;67.75
69171;BME280;56279;47.902;12.308;2023-04-05T07:58:15;95680.38;;;0.94;68.44
69171;BME280;56279;47.902;12.308;2023-04-05T08:00:17;95675.59;;;0.98;67.41
69171;BME280;56279;47.902;12.308;2023-04-05T08:02:19;95678.53;;;1.01;67.60
69171;BME280;56279;47.902;12.308;2023-04-05T08:04:21;95680.50;;;1.06;67.35
69171;BME280;56279;47.902;12.308;2023-04-05T08:06:25;95682.47;;;1.10;67.09
69171;BME280;56279;47.902;12.308;2023-04-05T08:08:27;95684.44;;;1.15;66.88
69171;BME280;56279;47.902;12.308;2023-04-05T08:10:28;95683.63;;;1.21;66.52
69171;BME280;56279;47.902;12.308;2023-04-05T08:12:30;95683.59;;;1.27;66.99
69171;BME280;56279;47.902;12.308;2023-04-05T08:14:32;95685.34;;;1.33;67.48
69171;BME280;56279;47.902;12.308;2023-04-05T08:16:33;95686.31;;;1.39;66.64
69171;BME280;56279;47.902;12.308;2023-04-05T08:18:34;95687.69;;;1.42;66.61
69171;BME280;56279;47.902;12.308;2023-04-05T08:20:37;95686.47;;;1.44;66.37
69171;BME280;56279;47.902;12.308;2023-04-05T08:22:39;95688.63;;;1.47;65.83
69171;BME280;56279;47.902;12.308;2023-04-05T08:24:40;95685.63;;;1.50;66.66
69171;BME280;56279;47.902;12.308;2023-04-05T08:26:41;95691.78;;;1.56;66.14
69171;BME280;56279;47.902;12.308;2023-04-05T08:28:44;95687.75;;;1.60;65.45
69171;BME280;56279;47.902;12.308;2023-04-05T08:30:45;95691.53;;;1.64;65.42
69171;BME280;56279;47.902;12.308;2023-04-05T08:32:47;95686.69;;;1.67;65.49
69171;BME280;56279;47.902;12.308;2023-04-05T08:34:48;95691.28;;;1.72;65.96
69171;BME280;56279;47.902;12.308;2023-04-05T08:36:49;95686.41;;;1.75;64.78
69171;BME280;56279;47.902;12.308;2023-04-05T08:38:51;95689.00;;;1.82;65.06
69171;BME280;56279;47.902;12.308;2023-04-05T08:40:52;95682.91;;;1.88;64.18
69171;BME280;56279;47.902;12.308;2023-04-05T08:43:12;95688.63;;;1.96;65.01
69171;BME280;56279;47.902;12.308;2023-04-05T08:45:16;95688.38;;;2.04;63.60
69171;BME280;56279;47.902;12.308;2023-04-05T08:47:20;95686.75;;;2.10;63.70
69171;BME280;56279;47.902;12.308;2023-04-05T08:49:23;95692.44;;;2.19;63.49
69171;BME280;56279;47.902;12.308;2023-04-05T08:51:24;95689.94;;;2.30;63.71
69171;BME280;56279;47.902;12.308;2023-04-05T08:53:26;95681.41;;;2.41;62.78
69171;BME280;56279;47.902;12.308;2023-04-05T08:55:28;95686.91;;;2.51;62.52
69171;BME280;56279;47.902;12.308;2023-04-05T08:57:29;95681.75;;;2.63;61.77
69171;BME280;56279;47.902;12.308;2023-04-05T08:59:32;95680.22;;;2.73;61.19
69171;BME280;56279;47.902;12.308;2023-04-05T09:01:42;95675.44;;;2.89;60.73
69171;BME280;56279;47.902;12.308;2023-04-05T09:03:44;95680.25;;;3.03;60.54
69171;BME280;56279;47.902;12.308;2023-04-05T09:05:51;95677.69;;;3.15;59.93
69171;BME280;56279;47.902;12.308;2023-04-05T09:07:53;95676.69;;;3.27;60.00
69171;BME280;56279;47.902;12.308;2023-04-05T09:09:59;95679.13;;;3.40;60.23
69171;BME280;56279;47.902;12.308;2023-04-05T09:12:04;95677.69;;;3.56;59.75
69171;BME280;56279;47.902;12.308;2023-04-05T09:14:07;95669.19;;;3.72;58.95
69171;BME280;56279;47.902;12.308;2023-04-05T09:16:09;95673.31;;;3.91;58.35
69171;BME280;56279;47.902;12.308;2023-04-05T09:18:11;95674.19;;;4.08;58.37
69171;BME280;56279;47.902;12.308;2023-04-05T09:20:12;95671.13;;;4.23;57.61
69171;BME280;56279;47.902;12.308;2023-04-05T09:22:13;95671.59;;;4.43;57.58
69171;BME280;56279;47.902;12.308;2023-04-05T09:26:35;95676.47;;;4.91;56.32
69171;BME280;56279;47.902;12.308;2023-04-05T09:28:40;95667.22;;;5.00;55.19
69171;BME280;56279;47.902;12.308;2023-04-05T09:30:45;95674.09;;;4.89;55.19
69171;BME280;56279;47.902;12.308;2023-04-05T09:32:49;95673.34;;;4.77;55.53
69171;BME280;56279;47.902;12.308;2023-04-05T09:34:52;95668.75;;;4.84;55.35
69171;BME280;56279;47.902;12.308;2023-04-05T09:36:59;95672.69;;;4.99;55.13
69171;BME280;56279;47.902;12.308;2023-04-05T09:39:05;95661.63;;;5.08;54.63
69171;BME280;56279;47.902;12.308;2023-04-05T09:41:08;95662.91;;;5.06;54.21
69171;BME280;56279;47.902;12.308;2023-04-05T09:43:11;95663.22;;;5.09;54.21
69171;BME280;56279;47.902;12.308;2023-04-05T09:45:14;95657.63;;;5.17;53.96
69171;BME280;56279;47.902;12.308;2023-04-05T09:47:31;95657.09;;;5.32;53.23
69171;BME280;56279;47.902;12.308;2023-04-05T09:49:37;95668.81;;;5.29;53.13
69171;BME280;56279;47.902;12.308;2023-04-05T09:51:40;95666.22;;;5.29;52.63
69171;BME280;56279;47.902;12.308;2023-04-05T09:54:05;95660.97;;;5.29;52.12
69171;BME280;56279;47.902;12.308;2023-04-05T09:56:11;95668.97;;;5.39;51.82
69171;BME280;56279;47.902;12.308;2023-04-05T09:58:18;95657.50;;;5.40;51.19
69171;BME280;56279;47.902;12.308;2023-04-05T10:00:20;95662.41;;;5.53;51.55
69171;BME280;56279;47.902;12.308;2023-04-05T10:02:23;95659.50;;;5.67;51.28
69171;BME280;56279;47.902;12.308;2023-04-05T10:04:25;95663.88;;;5.78;50.70
69171;BME280;56279;47.902;12.308;2023-04-05T10:06:39;95654.50;;;5.82;51.07
69171;BME280;56279;47.902;12.308;2023-04-05T10:08:41;95658.78;;;5.71;50.29
69171;BME280;56279;47.902;12.308;2023-04-05T10:10:46;95648.25;;;5.66;50.21
69171;BME280;56279;47.902;12.308;2023-04-05T10:12:50;95661.88;;;5.68;50.52
69171;BME280;56279;47.902;12.308;2023-04-05T10:14:56;95652.38;;;5.79;50.73
69171;BME280;56279;47.902;12.308;2023-04-05T10:17:19;95651.03;;;5.93;50.33
69171;BME280;56279;47.902;12.308;2023-04-05T10:21:51;95653.25;;;5.84;49.76
69171;BME280;56279;47.902;12.308;2023-04-05T10:24:00;95643.38;;;5.75;49.33
69171;BME280;56279;47.902;12.308;2023-04-05T10:26:20;95643.25;;;5.65;49.60
69171;BME280;56279;47.902;12.308;2023-04-05T10:28:33;95647.53;;;5.71;49.89
69171;BME280;56279;47.902;12.308;2023-04-05T10:30:39;95633.16;;;5.73;48.88
69171;BME280;56279;47.902;12.308;2023-04-05T10:33:06;95636.59;;;5.74;49.66
69171;BME280;56279;47.902;12.308;2023-04-05T10:35:21;95635.63;;;5.80;48.97
69171;BME280;56279;47.902;12.308;2023-04-05T10:37:41;95629.84;;;5.78;49.04
69171;BME280;56279;47.902;12.308;2023-04-05T10:39:48;95632.13;;;5.74;47.87
69171;BME280;56279;47.902;12.308;2023-04-05T10:42:00;95635.94;;;5.67;47.32
69171;BME280;56279;47.902;12.308;2023-04-05T10:44:04;95626.75;;;5.64;47.32
69171;BME280;56279;47.902;12.308;2023-04-05T10:46:06;95626.19;;;5.62;47.87
69171;BME280;56279;47.902;12.308;2023-04-05T10:48:18;95631.09;;;5.58;48.29
69171;BME280;56279;47.902;12.308;2023-04-05T10:50:23;95623.63;;;5.67;48.22
69171;BME280;56279;47.902;12.308;2023-04-05T10:52:25;95617.75;;;5.77;48.42
69171;BME280;56279;47.902;12.308;2023-04-05T10:54:30;95618.50;;;5.89;47.97
69171;BME280;56279;47.902;12.308;2023-04-05T10:56:32;95613.81;;;5.91;47.95
69171;BME280;56279;47.902;12.308;2023-04-05T10:58:34;95627.41;;;5.88;48.08
69171;BME280;56279;47.902;12.308;2023-04-05T11:00:36;95625.63;;;5.93;48.12
69171;BME280;56279;47.902;12.308;2023-04-05T11:02:38;95619.75;;;6.03;47.88
69171;BME280;56279;47.902;12.308;2023-04-05T11:04:39;95623.47;;;6.07;48.04
69171;BME280;56279;47.902;12.308;2023-04-05T11:06:42;95625.97;;;5.97;46.94
69171;BME280;56279;47.902;12.308;2023-04-05T11:08:50;95612.53;;;5.93;47.49
69171;BME280;56279;47.902;12.308;2023-04-05T11:10:52;95613.88;;;5.96;47.42
69171;BME280;56279;47.902;12.308;2023-04-05T11:15:50;95608.34;;;5.92;47.59
69171;BME280;56279;47.902;12.308;2023-04-05T11:17:43;95610.09;;;5.87;47.32
69171;BME280;56279;47.902;12.308;2023-04-05T11:21:46;95604.84;;;5.87;46.60
69171;BME280;56279;47.902;12.308;2023-04-05T11:24:07;95610.16;;;5.92;46.52
69171;BME280;56279;47.902;12.308;2023-04-05T11:26:08;95596.34;;;5.96;45.83
69171;BME280;56279;47.902;12.308;2023-04-05T11:28:21;95601.31;;;5.81;46.15
69171;BME280;56279;47.902;12.308;2023-04-05T11:30:49;95592.63;;;5.76;46.71
69171;BME280;56279;47.902;12.308;2023-04-05T11:32:52;95594.44;;;5.75;46.56
69171;BME280;56279;47.902;12.308;2023-04-05T11:35:04;95599.63;;;5.87;46.61
69171;BME280;56279;47.902;12.308;2023-04-05T11:37:06;95597.38;;;5.95;46.32
69171;BME280;56279;47.902;12.308;2023-04-05T11:41:24;95593.38;;;6.09;46.72
69171;BME280;56279;47.902;12.308;2023-04-05T11:43:32;95591.22;;;6.23;46.99
69171;BME280;56279;47.902;12.308;2023-04-05T11:45:39;95596.34;;;6.35;46.61
69171;BME280;56279;47.902;12.308;2023-04-05T11:47:42;95594.88;;;6.44;46.35
69171;BME280;56279;47.902;12.308;2023-04-05T11:49:43;95594.09;;;6.43;45.66
69171;BME280;56279;47.902;12.308;2023-04-05T11:51:52;95589.25;;;6.35;45.79
69171;BME280;56279;47.902;12.308;2023-04-05T11:53:53;95596.91;;;6.37;45.65
69171;BME280;56279;47.902;12.308;2023-04-05T11:55:54;95592.19;;;6.39;44.53
69171;BME280;56279;47.902;12.308;2023-04-05T11:58:18;95582.56;;;6.44;44.61
69171;BME280;56279;47.902;12.308;2023-04-05T12:00:23;95585.25;;;6.49;44.93
69171;BME280;56279;47.902;12.308;2023-04-05T12:02:26;95583.16;;;6.51;44.56
69171;BME280;56279;47.902;12.308;2023-04-05T12:04:27;95583.72;;;6.53;44.89
69171;BME280;56279;47.902;12.308;2023-04-05T12:06:28;95583.75;;;6.58;44.44
69171;BME280;56279;47.902;12.308;2023-04-05T12:08:40;95580.53;;;6.51;44.61
69171;BME280;56279;47.902;12.308;2023-04-05T12:10:43;95582.19;;;6.57;44.40
69171;BME280;56279;47.902;12.308;2023-04-05T12:12:44;95575.47;;;6.66;44.71
69171;BME280;56279;47.902;12.308;2023-04-05T12:14:47;95574.25;;;6.74;44.80
69171;BME280;56279;47.902;12.308;2023-04-05T12:16:48;95572.97;;;6.76;44.67
69171;BME280;56279;47.902;12.308;2023-04-05T12:18:55;95570.38;;;6.81;44.56
69171;BME280;56279;47.902;12.308;2023-04-05T12:20:57;95567.88;;;6.91;44.38
69171;BME280;56279;47.902;12.308;2023-04-05T12:22:58;95563.22;;;6.98;44.22
69171;BME280;56279;47.902;12.308;2023-04-05T12:25:00;95570.59;;;7.02;44.71
69171;BME280;56279;47.902;12.308;2023-04-05T12:27:01;95565.09;;;7.03;44.72
69171;BME280;56279;47.902;12.308;2023-04-05T12:29:03;95559.41;;;7.11;45.24
69171;BME280;56279;47.902;12.308;2023-04-05T12:31:05;95560.06;;;7.23;44.64
69171;BME280;56279;47.902;12.308;2023-04-05T12:33:06;95564.28;;;7.29;44.63
69171;BME280;56279;47.902;12.308;2023-04-05T12:35:11;95558.59;;;7.37;44.73
69171;BME280;56279;47.902;12.308;2023-04-05T12:37:12;95556.50;;;7.39;44.38
69171;BME280;56279;47.902;12.308;2023-04-05T12:39:15;95561.81;;;7.44;44.56
69171;BME280;56279;47.902;12.308;2023-04-05T12:41:26;95568.63;;;7.45;43.98
69171;BME280;56279;47.902;12.308;2023-04-05T12:43:40;95557.38;;;7.50;43.99
69171;BME280;56279;47.902;12.308;2023-04-05T12:45:42;95559.47;;;7.48;42.48
69171;BME280;56279;47.902;12.308;2023-04-05T12:47:51;95557.75;;;7.32;42.74
69171;BME280;56279;47.902;12.308;2023-04-05T12:49:54;95549.94;;;7.10;43.54
69171;BME280;56279;47.902;12.308;2023-04-05T12:51:59;95564.22;;;6.92;44.21
69171;BME280;56279;47.902;12.308;2023-04-05T12:54:02;95558.97;;;6.92;43.61
69171;BME280;56279;47.902;12.308;2023-04-05T12:56:05;95555.13;;;7.00;43.27
69171;BME280;56279;47.902;12.308;2023-04-05T12:58:07;95557.22;;;7.03;43.07
69171;BME280;56279;47.902;12.308;2023-04-05T13:00:09;95555.59;;;6.97;42.66
69171;BME280;56279;47.902;12.308;2023-04-05T13:02:10;95556.78;;;6.84;42.68
69171;BME280;56279;47.902;12.308;2023-04-05T13:04:12;95555.31;;;6.67;42.21
69171;BME280;56279;47.902;12.308;2023-04-05T13:06:13;95552.91;;;6.65;43.20
69171;BME280;56279;47.902;12.308;2023-04-05T13:08:15;95552.28;;;6.80;43.12
69171;BME280;56279;47.902;12.308;2023-04-05T13:10:19;95534.66;;;7.02;43.08
69171;BME280;56279;47.902;12.308;2023-04-05T13:12:20;95540.13;;;7.27;43.17
69171;BME280;56279;47.902;12.308;2023-04-05T13:14:22;95548.31;;;7.36;42.07
69171;BME280;56279;47.902;12.308;2023-04-05T13:16:23;95539.53;;;7.52;42.39
69171;BME280;56279;47.902;12.308;2023-04-05T13:18:24;95533.88;;;7.70;42.56
69171;BME280;56279;47.902;12.308;2023-04-05T13:20:25;95531.56;;;7.79;41.99
69171;BME280;56279;47.902;12.308;2023-04-05T13:22:26;95523.38;;;7.70;42.89
69171;BME280;56279;47.902;12.308;2023-04-05T13:24:28;95532.84;;;7.71;42.93
69171;BME280;56279;47.902;12.308;2023-04-05T13:26:29;95527.31;;;7.68;43.19
69171;BME280;56279;47.902;12.308;2023-04-05T13:28:30;95518.13;;;7.70;43.55
69171;BME280;56279;47.902;12.308;2023-04-05T13:30:32;95524.69;;;7.73;43.24
69171;BME280;56279;47.902;12.308;2023-04-05T13:32:33;95523.13;;;7.72;42.67
69171;BME280;56279;47.902;12.308;2023-04-05T13:34:35;95525.97;;;7.65;43.32
69171;BME280;56279;47.902;12.308;2023-04-05T13:36:36;95519.09;;;7.59;42.57
69171;BME280;56279;47.902;12.308;2023-04-05T13:38:37;95526.44;;;7.57;42.78
69171;BME280;56279;47.902;12.308;2023-04-05T13:40:38;95530.63;;;7.53;42.80
69171;BME280;56279;47.902;12.308;2023-04-05T13:42:40;95523.81;;;7.57;43.07
69171;BME280;56279;47.902;12.308;2023-04-05T13:44:41;95520.19;;;7.68;42.92
69171;BME280;56279;47.902;12.308;2023-04-05T13:46:42;95528.88;;;7.68;42.38
69171;BME280;56279;47.902;12.308;2023-04-05T13:48:44;95524.13;;;7.65;43.11
69171;BME280;56279;47.902;12.308;2023-04-05T13:50:45;95518.13;;;7.70;43.03
69171;BME280;56279;47.902;12.308;2023-04-05T13:52:46;95516.59;;;7.79;42.62
69171;BME280;56279;47.902;12.308;2023-04-05T13:54:48;95514.03;;;7.94;43.80
69171;BME280;56279;47.902;12.308;2023-04-05T13:56:49;95519.91;;;8.06;43.07
69171;BME280;56279;47.902;12.308;2023-04-05T13:58:50;95512.63;;;8.23;43.13
69171;BME280;56279;47.902;12.308;2023-04-05T14:00:51;95514.19;;;8.24;42.95
69171;BME280;56279;47.902;12.308;2023-04-05T14:02:53;95512.13;;;8.26;42.94
69171;BME280;56279;47.902;12.308;2023-04-05T14:04:54;95509.56;;;8.42;43.05
69171;BME280;56279;47.902;12.308;2023-04-05T14:06:56;95505.41;;;8.61;42.87
69171;BME280;56279;47.902;12.308;2023-04-05T14:08:57;95508.59;;;8.78;43.46